Time,TemperatureF,DewpointF,PressureIn,WindDirection,WindDirectionDegrees,WindSpeedMPH,WindSpeedGustMPH,Humidity,HourlyPrecipIn,Conditions,Clouds,dailyrainin,SoftwareType,DateUTC
2013-05-21 00:14:00,65.0,63.0,29.86,NE,40,0.0,0.0,92,0.00,,,0.00,weatherlink.com 1.10,2013-05-21 04:14:00,
2013-05-21 00:29:00,64.8,63.0,29.86,NE,40,0.0,0.0,92,0.00,,,0.00,weatherlink.com 1.10,2013-05-21 04:29:00,
2013-05-21 00:45:00,64.4,62.0,29.86,NE,40,0.0,0.0,92,0.00,,,0.00,weatherlink.com 1.10,2013-05-21 04:45:00,
2013-05-21 01:00:00,64.0,61.0,29.85,NE,40,0.0,0.0,91,0.00,,,0.00,weatherlink.com 1.10,2013-05-21 05:00:00,
2013-05-21 01:15:00,63.5,61.0,29.85,NE,40,0.0,0.0,92,0.00,,,0.00,weatherlink.com 1.10,2013-05-21 05:15:00,
2013-05-21 01:30:00,63.1,61.0,29.85,NE,40,0.0,0.0,92,0.00,,,0.00,weatherlink.com 1.10,2013-05-21 05:30:00,
2013-05-21 01:45:00,62.7,60.0,29.85,NE,40,0.0,0.0,92,0.00,,,0.00,weatherlink.com 1.10,2013-05-21 05:45:00,
2013-05-21 02:00:00,62.3,60.0,29.85,NE,40,0.0,0.0,92,0.00,,,0.00,weatherlink.com 1.10,2013-05-21 06:00:00,
2013-05-21 02:15:00,61.8,60.0,29.84,NE,40,0.0,0.0,93,0.00,,,0.00,weatherlink.com 1.10,2013-05-21 06:15:00,
2013-05-21 02:30:00,61.6,60.0,29.83,NE,40,0.0,0.0,94,0.00,,,0.00,weatherlink.com 1.10,2013-05-21 06:30:00,
2013-05-21 02:45:00,61.3,60.0,29.83,NE,40,0.0,0.0,94,0.00,,,0.00,weatherlink.com 1.10,2013-05-21 06:45:00,
2013-05-21 03:00:00,60.9,59.0,29.83,NE,40,0.0,0.0,93,0.00,,,0.00,weatherlink.com 1.10,2013-05-21 07:00:00,
2013-05-21 03:15:00,60.7,59.0,29.82,NE,40,0.0,0.0,94,0.00,,,0.00,weatherlink.com 1.10,2013-05-21 07:15:00,
2013-05-21 03:30:00,60.4,59.0,29.82,NE,40,0.0,0.0,94,0.00,,,0.00,weatherlink.com 1.10,2013-05-21 07:30:00,
2013-05-21 03:45:00,60.1,58.0,29.82,NE,40,0.0,0.0,94,0.00,,,0.00,weatherlink.com 1.10,2013-05-21 07:45:00,
2013-05-21 04:00:00,59.9,58.0,29.82,NE,40,0.0,2.0,94,0.00,,,0.00,weatherlink.com 1.10,2013-05-21 08:00:00,
2013-05-21 04:15:00,59.6,58.0,29.83,NE,40,0.0,0.0,94,0.00,,,0.00,weatherlink.com 1.10,2013-05-21 08:15:00,
2013-05-21 04:30:00,59.5,58.0,29.83,NE,40,1.0,2.0,95,0.00,,,0.00,weatherlink.com 1.10,2013-05-21 08:30:00,
2013-05-21 04:45:00,59.3,58.0,29.83,NE,40,0.0,0.0,94,0.00,,,0.00,weatherlink.com 1.10,2013-05-21 08:45:00,
2013-05-21 05:00:00,59.1,58.0,29.84,NE,40,0.0,1.0,95,0.00,,,0.00,weatherlink.com 1.10,2013-05-21 09:00:00,
2013-05-21 05:15:00,59.0,58.0,29.84,NE,40,0.0,0.0,95,0.17,,,0.17,weatherlink.com 1.10,2013-05-21 09:15:00,
2013-05-21 05:30:00,58.7,58.0,29.83,NE,40,0.0,1.0,96,0.37,,,0.37,weatherlink.com 1.10,2013-05-21 09:30:00,
2013-05-21 05:45:00,58.6,58.0,29.82,NE,40,0.0,0.0,96,0.43,,,0.43,weatherlink.com 1.10,2013-05-21 09:45:00,
2013-05-21 06:00:00,58.8,58.0,29.83,NE,40,0.0,1.0,96,0.43,,,0.43,weatherlink.com 1.10,2013-05-21 10:00:00,
2013-05-21 06:15:00,59.3,59.0,29.84,NE,40,0.0,3.0,97,0.26,,,0.43,weatherlink.com 1.10,2013-05-21 10:15:00,
2013-05-21 06:30:00,59.9,59.0,29.85,NE,40,0.0,2.0,97,0.05,,,0.43,weatherlink.com 1.10,2013-05-21 10:30:00,
2013-05-21 06:45:00,60.5,60.0,29.84,ENE,71,1.0,6.0,97,0.00,,,0.43,weatherlink.com 1.10,2013-05-21 10:45:00,
2013-05-21 07:00:00,60.9,60.0,29.84,North,5,1.0,4.0,96,0.00,,,0.43,weatherlink.com 1.10,2013-05-21 11:00:00,
2013-05-21 07:15:00,61.1,60.0,29.83,NE,49,4.0,6.0,95,0.00,,,0.43,weatherlink.com 1.10,2013-05-21 11:15:00,
2013-05-21 07:30:00,61.2,60.0,29.82,West,261,3.0,7.0,95,0.00,,,0.43,weatherlink.com 1.10,2013-05-21 11:30:00,
2013-05-21 07:45:00,61.2,60.0,29.84,North,355,2.0,3.0,95,0.00,,,0.43,weatherlink.com 1.10,2013-05-21 11:45:00,
2013-05-21 08:00:00,61.5,60.0,29.85,North,5,4.0,5.0,94,0.00,,,0.43,weatherlink.com 1.10,2013-05-21 12:00:00,
2013-05-21 08:15:00,61.7,60.0,29.84,NNE,28,1.0,5.0,94,0.00,,,0.43,weatherlink.com 1.10,2013-05-21 12:15:00,
2013-05-21 08:30:00,61.9,60.0,29.85,North,11,1.0,4.0,93,0.00,,,0.43,weatherlink.com 1.10,2013-05-21 12:30:00,
2013-05-21 08:45:00,62.1,60.0,29.84,NE,45,1.0,5.0,92,0.00,,,0.43,weatherlink.com 1.10,2013-05-21 12:45:00,
2013-05-21 09:00:00,62.5,61.0,29.84,North,5,3.0,4.0,93,0.00,,,0.43,weatherlink.com 1.10,2013-05-21 13:00:00,
2013-05-21 09:15:00,62.7,60.0,29.84,NE,48,1.0,3.0,92,0.00,,,0.43,weatherlink.com 1.10,2013-05-21 13:15:00,
2013-05-21 09:30:00,63.0,61.0,29.84,North,5,0.0,4.0,92,0.00,,,0.43,weatherlink.com 1.10,2013-05-21 13:30:00,
2013-05-21 09:45:00,63.5,61.0,29.83,NE,50,3.0,4.0,92,0.00,,,0.43,weatherlink.com 1.10,2013-05-21 13:45:00,
2013-05-21 10:00:00,64.0,61.0,29.82,NNW,346,1.0,3.0,90,0.00,,,0.43,weatherlink.com 1.10,2013-05-21 14:00:00,
2013-05-21 10:15:00,65.1,62.0,29.80,NNE,26,1.0,4.0,90,0.00,,,0.43,weatherlink.com 1.10,2013-05-21 14:15:00,
2013-05-21 10:31:00,66.1,63.0,29.80,WNW,293,3.0,4.0,88,0.00,,,0.43,weatherlink.com 1.10,2013-05-21 14:31:00,
2013-05-21 10:46:00,66.6,63.0,29.83,NNE,16,5.0,5.0,87,0.00,,,0.43,weatherlink.com 1.10,2013-05-21 14:46:00,
2013-05-21 11:01:00,66.4,64.0,29.81,North,360,1.0,3.0,90,0.00,,,0.43,weatherlink.com 1.10,2013-05-21 15:01:00,
2013-05-21 11:16:00,69.5,65.0,29.82,North,355,4.0,8.0,86,0.00,,,0.43,weatherlink.com 1.10,2013-05-21 15:16:00,
2013-05-21 11:31:00,70.4,65.0,29.80,NNE,13,5.0,6.0,82,0.00,,,0.43,weatherlink.com 1.10,2013-05-21 15:31:00,
2013-05-21 11:46:00,72.0,66.0,29.79,ENE,62,1.0,6.0,81,0.00,,,0.43,weatherlink.com 1.10,2013-05-21 15:46:00,
2013-05-21 12:01:00,73.8,67.0,29.78,NE,34,3.0,8.0,78,0.00,,,0.43,weatherlink.com 1.10,2013-05-21 16:01:00,
2013-05-21 12:16:00,75.2,66.0,29.78,NNE,15,4.0,8.0,73,0.00,,,0.43,weatherlink.com 1.10,2013-05-21 16:16:00,
2013-05-21 12:31:00,74.8,66.0,29.77,NNE,28,0.0,5.0,73,0.00,,,0.43,weatherlink.com 1.10,2013-05-21 16:31:00,
2013-05-21 12:46:00,75.7,67.0,29.78,North,360,4.0,8.0,75,0.00,,,0.43,weatherlink.com 1.10,2013-05-21 16:46:00,
2013-05-21 13:01:00,77.3,68.0,29.78,NNW,327,3.0,8.0,74,0.00,,,0.43,weatherlink.com 1.10,2013-05-21 17:01:00,
2013-05-21 13:16:00,77.8,68.0,29.77,NNW,338,9.0,11.0,71,0.00,,,0.43,weatherlink.com 1.10,2013-05-21 17:16:00,
2013-05-21 13:31:00,77.6,67.0,29.77,NE,42,3.0,11.0,70,0.00,,,0.43,weatherlink.com 1.10,2013-05-21 17:31:00,
2013-05-21 13:46:00,77.9,67.0,29.77,NE,50,5.0,9.0,69,0.00,,,0.43,weatherlink.com 1.10,2013-05-21 17:46:00,
2013-05-21 14:01:00,77.8,67.0,29.78,NE,51,6.0,9.0,69,0.00,,,0.43,weatherlink.com 1.10,2013-05-21 18:01:00,
2013-05-21 14:16:00,77.5,65.0,29.79,North,5,6.0,14.0,66,0.00,,,0.43,weatherlink.com 1.10,2013-05-21 18:16:00,
2013-05-21 14:31:00,75.0,63.0,29.79,NNE,13,4.0,13.0,67,0.00,,,0.43,weatherlink.com 1.10,2013-05-21 18:31:00,
2013-05-21 14:46:00,72.6,63.0,29.79,NE,46,6.0,13.0,71,0.00,,,0.43,weatherlink.com 1.10,2013-05-21 18:46:00,
2013-05-21 15:01:00,71.8,62.0,29.79,North,355,4.0,11.0,72,0.00,,,0.43,weatherlink.com 1.10,2013-05-21 19:01:00,
2013-05-21 15:16:00,73.2,62.0,29.79,NNE,22,3.0,8.0,69,0.00,,,0.43,weatherlink.com 1.10,2013-05-21 19:16:00,
2013-05-21 15:31:00,73.0,62.0,29.80,NNE,30,7.0,11.0,69,0.00,,,0.43,weatherlink.com 1.10,2013-05-21 19:31:00,
2013-05-21 15:46:00,71.8,61.0,29.80,North,355,8.0,12.0,68,0.00,,,0.43,weatherlink.com 1.10,2013-05-21 19:46:00,
2013-05-21 16:01:00,70.9,59.0,29.80,North,349,9.0,15.0,66,0.00,,,0.43,weatherlink.com 1.10,2013-05-21 20:01:00,
2013-05-21 16:16:00,68.7,58.0,29.81,North,355,4.0,13.0,68,0.00,,,0.43,weatherlink.com 1.10,2013-05-21 20:16:00,
2013-05-21 16:31:00,65.7,56.0,29.82,North,355,4.0,13.0,72,0.00,,,0.43,weatherlink.com 1.10,2013-05-21 20:31:00,
2013-05-21 16:46:00,63.1,54.0,29.83,NNE,17,6.0,15.0,73,0.00,,,0.43,weatherlink.com 1.10,2013-05-21 20:46:00,
2013-05-21 17:01:00,60.8,54.0,29.84,NNE,17,3.0,14.0,77,0.00,,,0.43,weatherlink.com 1.10,2013-05-21 21:01:00,
2013-05-21 17:16:00,58.7,53.0,29.84,NNE,33,6.0,13.0,82,0.13,,,0.56,weatherlink.com 1.10,2013-05-21 21:16:00,
2013-05-21 17:32:00,57.5,53.0,29.84,ENE,68,4.0,11.0,84,0.27,,,0.70,weatherlink.com 1.10,2013-05-21 21:32:00,
2013-05-21 17:47:00,56.6,52.0,29.85,North,355,5.0,13.0,85,0.28,,,0.71,weatherlink.com 1.10,2013-05-21 21:47:00,
2013-05-21 18:02:00,56.0,52.0,29.88,NNE,13,2.0,10.0,86,0.28,,,0.71,weatherlink.com 1.10,2013-05-21 22:02:00,
2013-05-21 18:17:00,55.6,52.0,29.88,ENE,76,5.0,10.0,86,0.14,,,0.71,weatherlink.com 1.10,2013-05-21 22:17:00,
2013-05-21 18:32:00,55.3,52.0,29.88,East,90,3.0,9.0,87,0.00,,,0.71,weatherlink.com 1.10,2013-05-21 22:32:00,
2013-05-21 18:46:00,55.1,51.0,29.90,NNW,327,5.0,7.0,87,0.00,,,0.71,weatherlink.com 1.10,2013-05-21 22:46:00,
2013-05-21 19:02:00,54.7,51.0,29.91,NNW,346,4.0,8.0,88,0.00,,,0.71,weatherlink.com 1.10,2013-05-21 23:02:00,
2013-05-21 19:17:00,54.5,51.0,29.91,North,360,0.0,7.0,89,0.00,,,0.71,weatherlink.com 1.10,2013-05-21 23:17:00,
2013-05-21 19:32:00,54.3,51.0,29.90,NE,40,4.0,5.0,89,0.00,,,0.71,weatherlink.com 1.10,2013-05-21 23:32:00,
2013-05-21 19:47:00,54.0,51.0,29.89,NE,39,1.0,9.0,88,0.00,,,0.71,weatherlink.com 1.10,2013-05-21 23:47:00,
2013-05-21 20:02:00,53.7,51.0,29.89,NE,46,4.0,5.0,89,0.00,,,0.71,weatherlink.com 1.10,2013-05-22 00:02:00,
2013-05-21 20:17:00,53.6,51.0,29.89,NNE,27,3.0,5.0,89,0.00,,,0.71,weatherlink.com 1.10,2013-05-22 00:17:00,
2013-05-21 20:32:00,53.5,50.0,29.89,NE,51,2.0,6.0,89,0.00,,,0.71,weatherlink.com 1.10,2013-05-22 00:32:00,
2013-05-21 20:47:00,53.1,50.0,29.91,NNE,26,4.0,8.0,89,0.00,,,0.71,weatherlink.com 1.10,2013-05-22 00:47:00,
2013-05-21 21:02:00,53.0,50.0,29.89,NNW,337,3.0,6.0,88,0.00,,,0.71,weatherlink.com 1.10,2013-05-22 01:02:00,
2013-05-21 21:17:00,52.9,50.0,29.88,NNE,27,4.0,10.0,88,0.00,,,0.71,weatherlink.com 1.10,2013-05-22 01:17:00,
2013-05-21 21:32:00,52.7,50.0,29.88,North,10,2.0,7.0,89,0.00,,,0.71,weatherlink.com 1.10,2013-05-22 01:32:00,
2013-05-21 21:47:00,52.5,49.0,29.89,NNW,340,8.0,8.0,89,0.00,,,0.71,weatherlink.com 1.10,2013-05-22 01:47:00,
2013-05-21 22:02:00,52.5,49.0,29.90,North,5,3.0,7.0,89,0.00,,,0.71,weatherlink.com 1.10,2013-05-22 02:02:00,
2013-05-21 22:17:00,52.4,49.0,29.89,NNE,15,1.0,7.0,89,0.00,,,0.71,weatherlink.com 1.10,2013-05-22 02:17:00,
2013-05-21 22:32:00,52.3,50.0,29.87,ENE,57,8.0,8.0,90,0.00,,,0.71,weatherlink.com 1.10,2013-05-22 02:32:00,
2013-05-21 22:47:00,52.0,50.0,29.89,NNE,17,1.0,8.0,92,0.00,,,0.71,weatherlink.com 1.10,2013-05-22 02:47:00,
2013-05-21 23:02:00,51.9,50.0,29.90,NNW,329,3.0,7.0,92,0.00,,,0.71,weatherlink.com 1.10,2013-05-22 03:02:00,
2013-05-21 23:17:00,51.9,50.0,29.93,North,5,3.0,11.0,92,0.00,,,0.71,weatherlink.com 1.10,2013-05-22 03:17:00,
2013-05-21 23:32:00,51.7,50.0,29.93,North,360,10.0,11.0,93,0.00,,,0.71,weatherlink.com 1.10,2013-05-22 03:32:00,
2013-05-21 23:47:00,51.6,50.0,29.91,NNW,348,4.0,7.0,93,0.00,,,0.71,weatherlink.com 1.10,2013-05-22 03:47:00,